sensor_id;sensor_type;location;lat;lon;timestamp;P1;durP1;ratioP1;P2;durP2;ratioP2
13461;SDS011;6803;45.264;5.468;2022-10-16T00:02:09;2.70;;;2.40;;
13461;SDS011;6803;45.264;5.468;2022-10-16T00:04:40;4.83;;;2.23;;
13461;SDS011;6803;45.264;5.468;2022-10-16T00:07:10;2.33;;;2.13;;
13461;SDS011;6803;45.264;5.468;2022-10-16T00:09:41;4.27;;;2.30;;
13461;SDS011;6803;45.264;5.468;2022-10-16T00:12:12;12.60;;;3.10;;
13461;SDS011;6803;45.264;5.468;2022-10-16T00:14:42;4.63;;;2.80;;
13461;SDS011;6803;45.264;5.468;2022-10-16T00:17:13;5.83;;;2.50;;
13461;SDS011;6803;45.264;5.468;2022-10-16T00:19:43;3.63;;;2.70;;
13461;SDS011;6803;45.264;5.468;2022-10-16T00:22:14;3.23;;;2.63;;
13461;SDS011;6803;45.264;5.468;2022-10-16T00:24:44;6.27;;;2.70;;
13461;SDS011;6803;45.264;5.468;2022-10-16T00:27:15;4.77;;;2.77;;
13461;SDS011;6803;45.264;5.468;2022-10-16T00:29:48;4.23;;;2.20;;
13461;SDS011;6803;45.264;5.468;2022-10-16T00:32:19;4.47;;;2.80;;
13461;SDS011;6803;45.264;5.468;2022-10-16T00:34:51;5.10;;;2.40;;
13461;SDS011;6803;45.264;5.468;2022-10-16T00:37:22;3.10;;;2.80;;
13461;SDS011;6803;45.264;5.468;2022-10-16T00:39:52;4.03;;;2.50;;
13461;SDS011;6803;45.264;5.468;2022-10-16T00:42:23;4.93;;;2.70;;
13461;SDS011;6803;45.264;5.468;2022-10-16T00:44:56;6.93;;;2.70;;
13461;SDS011;6803;45.264;5.468;2022-10-16T00:47:27;3.20;;;2.70;;
13461;SDS011;6803;45.264;5.468;2022-10-16T00:50:02;3.10;;;2.63;;
13461;SDS011;6803;45.264;5.468;2022-10-16T00:52:34;8.07;;;2.90;;
13461;SDS011;6803;45.264;5.468;2022-10-16T00:55:06;3.07;;;2.70;;
13461;SDS011;6803;45.264;5.468;2022-10-16T00:57:39;3.63;;;2.60;;
13461;SDS011;6803;45.264;5.468;2022-10-16T01:00:12;5.27;;;3.20;;
13461;SDS011;6803;45.264;5.468;2022-10-16T01:02:51;6.03;;;2.80;;
13461;SDS011;6803;45.264;5.468;2022-10-16T01:05:23;5.67;;;2.80;;
13461;SDS011;6803;45.264;5.468;2022-10-16T01:07:57;4.07;;;3.30;;
13461;SDS011;6803;45.264;5.468;2022-10-16T01:10:31;5.40;;;2.83;;
13461;SDS011;6803;45.264;5.468;2022-10-16T01:13:05;6.63;;;2.97;;
13461;SDS011;6803;45.264;5.468;2022-10-16T01:15:40;4.90;;;3.03;;
13461;SDS011;6803;45.264;5.468;2022-10-16T01:18:13;4.50;;;3.20;;
13461;SDS011;6803;45.264;5.468;2022-10-16T01:20:47;4.27;;;2.87;;
13461;SDS011;6803;45.264;5.468;2022-10-16T01:23:22;4.93;;;3.33;;
13461;SDS011;6803;45.264;5.468;2022-10-16T01:26:23;3.80;;;2.70;;
13461;SDS011;6803;45.264;5.468;2022-10-16T01:29:16;3.67;;;3.10;;
13461;SDS011;6803;45.264;5.468;2022-10-16T01:31:50;12.70;;;3.30;;
13461;SDS011;6803;45.264;5.468;2022-10-16T01:34:25;7.87;;;3.40;;
13461;SDS011;6803;45.264;5.468;2022-10-16T01:36:59;6.73;;;3.00;;
13461;SDS011;6803;45.264;5.468;2022-10-16T01:39:32;6.47;;;3.73;;
13461;SDS011;6803;45.264;5.468;2022-10-16T01:42:06;4.67;;;4.00;;
13461;SDS011;6803;45.264;5.468;2022-10-16T01:44:39;6.87;;;4.10;;
13461;SDS011;6803;45.264;5.468;2022-10-16T01:47:10;7.90;;;4.07;;
13461;SDS011;6803;45.264;5.468;2022-10-16T01:49:44;6.90;;;4.53;;
13461;SDS011;6803;45.264;5.468;2022-10-16T01:52:16;6.60;;;3.43;;
13461;SDS011;6803;45.264;5.468;2022-10-16T01:54:50;5.47;;;3.40;;
13461;SDS011;6803;45.264;5.468;2022-10-16T01:57:23;5.93;;;3.33;;
13461;SDS011;6803;45.264;5.468;2022-10-16T01:59:56;9.33;;;3.07;;
13461;SDS011;6803;45.264;5.468;2022-10-16T02:02:29;3.70;;;3.10;;
13461;SDS011;6803;45.264;5.468;2022-10-16T02:05:03;5.43;;;3.23;;
13461;SDS011;6803;45.264;5.468;2022-10-16T02:07:35;5.43;;;3.63;;
13461;SDS011;6803;45.264;5.468;2022-10-16T02:10:07;6.13;;;3.40;;
13461;SDS011;6803;45.264;5.468;2022-10-16T02:12:39;3.57;;;3.07;;
13461;SDS011;6803;45.264;5.468;2022-10-16T02:15:12;4.33;;;3.00;;
13461;SDS011;6803;45.264;5.468;2022-10-16T02:17:42;3.13;;;2.50;;
13461;SDS011;6803;45.264;5.468;2022-10-16T02:20:13;6.80;;;3.03;;
13461;SDS011;6803;45.264;5.468;2022-10-16T02:22:44;3.57;;;2.20;;
13461;SDS011;6803;45.264;5.468;2022-10-16T02:25:18;7.03;;;2.97;;
13461;SDS011;6803;45.264;5.468;2022-10-16T02:27:52;5.23;;;2.70;;
13461;SDS011;6803;45.264;5.468;2022-10-16T02:30:26;3.30;;;3.00;;
13461;SDS011;6803;45.264;5.468;2022-10-16T02:32:59;4.07;;;2.97;;
13461;SDS011;6803;45.264;5.468;2022-10-16T02:35:31;3.43;;;2.60;;
13461;SDS011;6803;45.264;5.468;2022-10-16T02:38:03;6.90;;;3.17;;
13461;SDS011;6803;45.264;5.468;2022-10-16T02:40:35;7.90;;;3.03;;
13461;SDS011;6803;45.264;5.468;2022-10-16T02:43:06;4.00;;;3.20;;
13461;SDS011;6803;45.264;5.468;2022-10-16T02:45:37;4.03;;;3.47;;
13461;SDS011;6803;45.264;5.468;2022-10-16T02:48:08;4.47;;;3.77;;
13461;SDS011;6803;45.264;5.468;2022-10-16T02:50:38;7.87;;;3.90;;
13461;SDS011;6803;45.264;5.468;2022-10-16T02:53:09;5.33;;;3.83;;
13461;SDS011;6803;45.264;5.468;2022-10-16T02:55:40;7.67;;;4.07;;
13461;SDS011;6803;45.264;5.468;2022-10-16T02:58:10;6.23;;;3.90;;
13461;SDS011;6803;45.264;5.468;2022-10-16T03:00:41;5.97;;;3.90;;
13461;SDS011;6803;45.264;5.468;2022-10-16T03:03:12;7.60;;;4.13;;
13461;SDS011;6803;45.264;5.468;2022-10-16T03:05:43;6.87;;;4.30;;
13461;SDS011;6803;45.264;5.468;2022-10-16T03:08:14;8.50;;;4.17;;
13461;SDS011;6803;45.264;5.468;2022-10-16T03:10:45;9.13;;;4.73;;
13461;SDS011;6803;45.264;5.468;2022-10-16T03:13:15;8.67;;;5.20;;
13461;SDS011;6803;45.264;5.468;2022-10-16T03:15:48;5.30;;;4.73;;
13461;SDS011;6803;45.264;5.468;2022-10-16T03:18:18;7.83;;;4.30;;
13461;SDS011;6803;45.264;5.468;2022-10-16T03:20:49;9.50;;;4.30;;
13461;SDS011;6803;45.264;5.468;2022-10-16T03:23:19;5.80;;;4.23;;
13461;SDS011;6803;45.264;5.468;2022-10-16T03:25:50;5.20;;;4.23;;
13461;SDS011;6803;45.264;5.468;2022-10-16T03:28:21;10.90;;;5.20;;
13461;SDS011;6803;45.264;5.468;2022-10-16T03:30:52;7.93;;;4.97;;
13461;SDS011;6803;45.264;5.468;2022-10-16T03:33:23;8.50;;;5.20;;
13461;SDS011;6803;45.264;5.468;2022-10-16T03:35:53;8.07;;;5.23;;
13461;SDS011;6803;45.264;5.468;2022-10-16T03:38:24;11.43;;;6.00;;
13461;SDS011;6803;45.264;5.468;2022-10-16T03:40:55;7.10;;;5.63;;
13461;SDS011;6803;45.264;5.468;2022-10-16T03:43:26;11.17;;;6.47;;
13461;SDS011;6803;45.264;5.468;2022-10-16T03:45:56;12.10;;;6.40;;
13461;SDS011;6803;45.264;5.468;2022-10-16T03:48:27;10.70;;;6.30;;
13461;SDS011;6803;45.264;5.468;2022-10-16T03:50:58;9.13;;;6.70;;
13461;SDS011;6803;45.264;5.468;2022-10-16T03:53:28;9.73;;;6.40;;
13461;SDS011;6803;45.264;5.468;2022-10-16T03:55:59;9.60;;;6.77;;
13461;SDS011;6803;45.264;5.468;2022-10-16T03:58:30;9.17;;;5.87;;
13461;SDS011;6803;45.264;5.468;2022-10-16T04:01:00;9.53;;;6.60;;
13461;SDS011;6803;45.264;5.468;2022-10-16T04:03:31;8.17;;;6.70;;
13461;SDS011;6803;45.264;5.468;2022-10-16T04:06:02;9.67;;;6.20;;
13461;SDS011;6803;45.264;5.468;2022-10-16T04:08:33;9.60;;;5.53;;
13461;SDS011;6803;45.264;5.468;2022-10-16T04:11:04;8.97;;;6.00;;
13461;SDS011;6803;45.264;5.468;2022-10-16T04:13:35;10.57;;;7.20;;
13461;SDS011;6803;45.264;5.468;2022-10-16T04:16:06;8.20;;;7.17;;
13461;SDS011;6803;45.264;5.468;2022-10-16T04:18:37;10.27;;;7.33;;
13461;SDS011;6803;45.264;5.468;2022-10-16T04:21:07;12.47;;;7.13;;
13461;SDS011;6803;45.264;5.468;2022-10-16T04:23:38;9.93;;;7.13;;
13461;SDS011;6803;45.264;5.468;2022-10-16T04:26:09;10.43;;;7.40;;
13461;SDS011;6803;45.264;5.468;2022-10-16T04:28:39;11.53;;;8.93;;
13461;SDS011;6803;45.264;5.468;2022-10-16T04:31:10;10.90;;;7.90;;
13461;SDS011;6803;45.264;5.468;2022-10-16T04:33:42;10.77;;;8.40;;
13461;SDS011;6803;45.264;5.468;2022-10-16T04:36:13;13.13;;;8.80;;
13461;SDS011;6803;45.264;5.468;2022-10-16T04:38:44;16.60;;;10.67;;
13461;SDS011;6803;45.264;5.468;2022-10-16T04:41:14;11.07;;;7.90;;
13461;SDS011;6803;45.264;5.468;2022-10-16T04:43:45;14.03;;;8.17;;
13461;SDS011;6803;45.264;5.468;2022-10-16T04:46:16;13.17;;;8.27;;
13461;SDS011;6803;45.264;5.468;2022-10-16T04:48:46;10.77;;;8.20;;
13461;SDS011;6803;45.264;5.468;2022-10-16T04:51:17;11.17;;;7.67;;
13461;SDS011;6803;45.264;5.468;2022-10-16T04:53:47;12.13;;;8.70;;
13461;SDS011;6803;45.264;5.468;2022-10-16T04:56:18;13.30;;;8.70;;
13461;SDS011;6803;45.264;5.468;2022-10-16T04:58:49;15.27;;;8.97;;
13461;SDS011;6803;45.264;5.468;2022-10-16T05:01:19;14.90;;;8.60;;
13461;SDS011;6803;45.264;5.468;2022-10-16T05:03:50;14.17;;;8.73;;
13461;SDS011;6803;45.264;5.468;2022-10-16T05:06:20;13.00;;;9.27;;
13461;SDS011;6803;45.264;5.468;2022-10-16T05:08:51;15.27;;;9.57;;
13461;SDS011;6803;45.264;5.468;2022-10-16T05:11:22;14.50;;;10.33;;
13461;SDS011;6803;45.264;5.468;2022-10-16T05:13:52;17.60;;;10.93;;
13461;SDS011;6803;45.264;5.468;2022-10-16T05:16:23;17.40;;;10.93;;
13461;SDS011;6803;45.264;5.468;2022-10-16T05:18:53;15.43;;;9.87;;
13461;SDS011;6803;45.264;5.468;2022-10-16T05:21:26;16.87;;;10.73;;
13461;SDS011;6803;45.264;5.468;2022-10-16T05:23:56;17.43;;;10.40;;
13461;SDS011;6803;45.264;5.468;2022-10-16T05:26:27;16.07;;;9.17;;
13461;SDS011;6803;45.264;5.468;2022-10-16T05:28:57;13.77;;;10.03;;
13461;SDS011;6803;45.264;5.468;2022-10-16T05:31:28;14.27;;;10.70;;
13461;SDS011;6803;45.264;5.468;2022-10-16T05:33:59;11.83;;;9.13;;
13461;SDS011;6803;45.264;5.468;2022-10-16T05:36:30;19.30;;;12.80;;
13461;SDS011;6803;45.264;5.468;2022-10-16T05:39:01;15.13;;;8.80;;
13461;SDS011;6803;45.264;5.468;2022-10-16T05:41:32;15.30;;;9.90;;
13461;SDS011;6803;45.264;5.468;2022-10-16T05:44:04;14.23;;;10.30;;
13461;SDS011;6803;45.264;5.468;2022-10-16T05:46:35;15.37;;;10.67;;
13461;SDS011;6803;45.264;5.468;2022-10-16T05:49:05;16.63;;;9.97;;
13461;SDS011;6803;45.264;5.468;2022-10-16T05:51:36;14.70;;;10.90;;
13461;SDS011;6803;45.264;5.468;2022-10-16T05:54:07;20.17;;;11.13;;
13461;SDS011;6803;45.264;5.468;2022-10-16T05:56:37;16.67;;;10.93;;
13461;SDS011;6803;45.264;5.468;2022-10-16T05:59:08;19.97;;;10.07;;
13461;SDS011;6803;45.264;5.468;2022-10-16T06:01:39;14.90;;;9.77;;
13461;SDS011;6803;45.264;5.468;2022-10-16T06:04:09;14.20;;;10.77;;
13461;SDS011;6803;45.264;5.468;2022-10-16T06:06:40;18.97;;;10.63;;
13461;SDS011;6803;45.264;5.468;2022-10-16T06:09:11;16.73;;;10.87;;
13461;SDS011;6803;45.264;5.468;2022-10-16T06:11:41;25.73;;;10.53;;
13461;SDS011;6803;45.264;5.468;2022-10-16T06:14:12;17.57;;;9.43;;
13461;SDS011;6803;45.264;5.468;2022-10-16T06:16:42;21.00;;;10.03;;
13461;SDS011;6803;45.264;5.468;2022-10-16T06:19:13;23.57;;;10.07;;
13461;SDS011;6803;45.264;5.468;2022-10-16T06:21:45;12.20;;;9.13;;
13461;SDS011;6803;45.264;5.468;2022-10-16T06:24:15;17.43;;;8.50;;
13461;SDS011;6803;45.264;5.468;2022-10-16T06:26:46;18.60;;;9.07;;
13461;SDS011;6803;45.264;5.468;2022-10-16T06:29:16;15.53;;;9.10;;
13461;SDS011;6803;45.264;5.468;2022-10-16T06:31:47;13.47;;;7.80;;
13461;SDS011;6803;45.264;5.468;2022-10-16T06:34:18;22.80;;;8.40;;
13461;SDS011;6803;45.264;5.468;2022-10-16T06:36:48;14.27;;;10.07;;
13461;SDS011;6803;45.264;5.468;2022-10-16T06:39:19;10.37;;;8.27;;
13461;SDS011;6803;45.264;5.468;2022-10-16T06:41:49;13.33;;;8.23;;
13461;SDS011;6803;45.264;5.468;2022-10-16T06:44:20;12.37;;;8.47;;
13461;SDS011;6803;45.264;5.468;2022-10-16T06:46:51;15.60;;;8.40;;
13461;SDS011;6803;45.264;5.468;2022-10-16T06:49:22;17.40;;;10.67;;
13461;SDS011;6803;45.264;5.468;2022-10-16T06:51:53;23.57;;;11.83;;
13461;SDS011;6803;45.264;5.468;2022-10-16T06:54:24;20.00;;;12.87;;
13461;SDS011;6803;45.264;5.468;2022-10-16T06:56:54;16.07;;;10.57;;
13461;SDS011;6803;45.264;5.468;2022-10-16T06:59:27;14.23;;;9.70;;
13461;SDS011;6803;45.264;5.468;2022-10-16T07:01:58;21.93;;;13.17;;
13461;SDS011;6803;45.264;5.468;2022-10-16T07:04:28;24.37;;;13.90;;
13461;SDS011;6803;45.264;5.468;2022-10-16T07:07:00;19.20;;;12.10;;
13461;SDS011;6803;45.264;5.468;2022-10-16T07:09:33;17.67;;;10.90;;
13461;SDS011;6803;45.264;5.468;2022-10-16T07:12:04;24.30;;;11.80;;
13461;SDS011;6803;45.264;5.468;2022-10-16T07:14:35;20.00;;;11.23;;
13461;SDS011;6803;45.264;5.468;2022-10-16T07:17:06;18.27;;;10.30;;
13461;SDS011;6803;45.264;5.468;2022-10-16T07:19:36;18.63;;;11.00;;
13461;SDS011;6803;45.264;5.468;2022-10-16T07:22:07;25.00;;;10.67;;
13461;SDS011;6803;45.264;5.468;2022-10-16T07:24:38;16.47;;;11.33;;
13461;SDS011;6803;45.264;5.468;2022-10-16T07:27:08;17.07;;;11.87;;
13461;SDS011;6803;45.264;5.468;2022-10-16T07:29:39;17.70;;;12.10;;
13461;SDS011;6803;45.264;5.468;2022-10-16T07:32:10;21.53;;;12.73;;
13461;SDS011;6803;45.264;5.468;2022-10-16T07:34:41;16.70;;;12.33;;
13461;SDS011;6803;45.264;5.468;2022-10-16T07:37:13;16.13;;;11.70;;
13461;SDS011;6803;45.264;5.468;2022-10-16T07:39:44;18.10;;;11.93;;
13461;SDS011;6803;45.264;5.468;2022-10-16T07:42:14;16.53;;;11.90;;
13461;SDS011;6803;45.264;5.468;2022-10-16T07:44:46;16.17;;;10.20;;
13461;SDS011;6803;45.264;5.468;2022-10-16T07:47:18;19.23;;;11.63;;
13461;SDS011;6803;45.264;5.468;2022-10-16T07:49:50;15.53;;;11.77;;
13461;SDS011;6803;45.264;5.468;2022-10-16T07:52:21;10.97;;;9.10;;
13461;SDS011;6803;45.264;5.468;2022-10-16T07:54:52;15.37;;;10.80;;
13461;SDS011;6803;45.264;5.468;2022-10-16T07:57:22;16.70;;;10.07;;
13461;SDS011;6803;45.264;5.468;2022-10-16T07:59:54;13.70;;;9.83;;
13461;SDS011;6803;45.264;5.468;2022-10-16T08:02:24;17.87;;;10.17;;
13461;SDS011;6803;45.264;5.468;2022-10-16T08:04:55;13.47;;;9.63;;
13461;SDS011;6803;45.264;5.468;2022-10-16T08:07:26;18.73;;;9.80;;
13461;SDS011;6803;45.264;5.468;2022-10-16T08:09:57;11.80;;;8.93;;
13461;SDS011;6803;45.264;5.468;2022-10-16T08:12:28;13.03;;;9.70;;
13461;SDS011;6803;45.264;5.468;2022-10-16T08:14:59;17.67;;;12.20;;
13461;SDS011;6803;45.264;5.468;2022-10-16T08:17:29;17.20;;;12.83;;
13461;SDS011;6803;45.264;5.468;2022-10-16T08:20:00;20.90;;;11.70;;
13461;SDS011;6803;45.264;5.468;2022-10-16T08:22:32;19.30;;;12.83;;
13461;SDS011;6803;45.264;5.468;2022-10-16T08:25:03;20.13;;;11.70;;
13461;SDS011;6803;45.264;5.468;2022-10-16T08:27:42;19.10;;;9.90;;
13461;SDS011;6803;45.264;5.468;2022-10-16T08:30:13;18.57;;;10.03;;
13461;SDS011;6803;45.264;5.468;2022-10-16T08:32:45;14.03;;;9.10;;
13461;SDS011;6803;45.264;5.468;2022-10-16T08:35:16;11.53;;;8.03;;
13461;SDS011;6803;45.264;5.468;2022-10-16T08:37:47;12.87;;;8.97;;
13461;SDS011;6803;45.264;5.468;2022-10-16T08:40:18;12.03;;;8.10;;
13461;SDS011;6803;45.264;5.468;2022-10-16T08:42:55;13.57;;;8.30;;
13461;SDS011;6803;45.264;5.468;2022-10-16T08:45:40;16.73;;;7.27;;
13461;SDS011;6803;45.264;5.468;2022-10-16T08:48:20;11.40;;;7.53;;
13461;SDS011;6803;45.264;5.468;2022-10-16T08:50:53;10.63;;;7.23;;
13461;SDS011;6803;45.264;5.468;2022-10-16T08:53:26;11.20;;;7.40;;
13461;SDS011;6803;45.264;5.468;2022-10-16T08:58:49;12.53;;;6.73;;
13461;SDS011;6803;45.264;5.468;2022-10-16T09:01:23;12.27;;;6.47;;
13461;SDS011;6803;45.264;5.468;2022-10-16T09:06:40;10.90;;;6.17;;
13461;SDS011;6803;45.264;5.468;2022-10-16T09:09:18;7.70;;;6.13;;
13461;SDS011;6803;45.264;5.468;2022-10-16T09:11:57;9.03;;;5.53;;
13461;SDS011;6803;45.264;5.468;2022-10-16T09:14:37;7.03;;;5.23;;
13461;SDS011;6803;45.264;5.468;2022-10-16T09:17:19;10.43;;;5.50;;
13461;SDS011;6803;45.264;5.468;2022-10-16T09:19:55;11.07;;;5.87;;
13461;SDS011;6803;45.264;5.468;2022-10-16T09:22:30;10.97;;;6.37;;
13461;SDS011;6803;45.264;5.468;2022-10-16T09:25:10;8.87;;;5.20;;
13461;SDS011;6803;45.264;5.468;2022-10-16T09:27:42;6.83;;;4.83;;
13461;SDS011;6803;45.264;5.468;2022-10-16T09:30:17;9.60;;;5.33;;
13461;SDS011;6803;45.264;5.468;2022-10-16T09:32:51;6.23;;;4.53;;
13461;SDS011;6803;45.264;5.468;2022-10-16T09:35:22;5.50;;;4.80;;
13461;SDS011;6803;45.264;5.468;2022-10-16T09:37:56;10.07;;;4.53;;
13461;SDS011;6803;45.264;5.468;2022-10-16T09:40:28;8.13;;;4.57;;
13461;SDS011;6803;45.264;5.468;2022-10-16T09:43:02;11.20;;;5.00;;
13461;SDS011;6803;45.264;5.468;2022-10-16T09:45:38;7.17;;;4.37;;
13461;SDS011;6803;45.264;5.468;2022-10-16T09:48:11;7.20;;;4.20;;
13461;SDS011;6803;45.264;5.468;2022-10-16T09:50:55;4.80;;;3.73;;
13461;SDS011;6803;45.264;5.468;2022-10-16T09:53:37;4.67;;;3.60;;
13461;SDS011;6803;45.264;5.468;2022-10-16T09:56:10;7.40;;;3.90;;
13461;SDS011;6803;45.264;5.468;2022-10-16T09:58:43;7.83;;;4.50;;
13461;SDS011;6803;45.264;5.468;2022-10-16T10:01:20;5.63;;;4.23;;
13461;SDS011;6803;45.264;5.468;2022-10-16T10:03:55;6.43;;;3.43;;
13461;SDS011;6803;45.264;5.468;2022-10-16T10:06:29;3.70;;;3.27;;
13461;SDS011;6803;45.264;5.468;2022-10-16T10:09:15;5.37;;;3.47;;
13461;SDS011;6803;45.264;5.468;2022-10-16T10:11:50;7.20;;;3.57;;
13461;SDS011;6803;45.264;5.468;2022-10-16T10:14:30;8.30;;;3.63;;
13461;SDS011;6803;45.264;5.468;2022-10-16T10:17:11;5.57;;;3.30;;
13461;SDS011;6803;45.264;5.468;2022-10-16T10:19:49;8.73;;;3.20;;
13461;SDS011;6803;45.264;5.468;2022-10-16T10:22:26;3.73;;;3.20;;
13461;SDS011;6803;45.264;5.468;2022-10-16T10:25:12;5.60;;;3.43;;
13461;SDS011;6803;45.264;5.468;2022-10-16T10:27:53;7.50;;;3.67;;
13461;SDS011;6803;45.264;5.468;2022-10-16T10:30:32;4.90;;;3.20;;
13461;SDS011;6803;45.264;5.468;2022-10-16T10:33:18;4.03;;;2.90;;
13461;SDS011;6803;45.264;5.468;2022-10-16T10:35:54;4.57;;;3.17;;
13461;SDS011;6803;45.264;5.468;2022-10-16T10:38:30;4.57;;;2.80;;
13461;SDS011;6803;45.264;5.468;2022-10-16T10:41:11;4.73;;;2.73;;
13461;SDS011;6803;45.264;5.468;2022-10-16T10:43:50;3.20;;;2.27;;
13461;SDS011;6803;45.264;5.468;2022-10-16T10:46:28;4.80;;;2.90;;
13461;SDS011;6803;45.264;5.468;2022-10-16T10:49:06;3.47;;;2.23;;
13461;SDS011;6803;45.264;5.468;2022-10-16T10:51:53;5.12;;;2.72;;
13461;SDS011;6803;45.264;5.468;2022-10-16T10:54:28;3.40;;;2.33;;
13461;SDS011;6803;45.264;5.468;2022-10-16T10:57:02;4.77;;;2.63;;
13461;SDS011;6803;45.264;5.468;2022-10-16T11:02:48;4.05;;;2.10;;
13461;SDS011;6803;45.264;5.468;2022-10-16T11:05:28;3.95;;;2.80;;
13461;SDS011;6803;45.264;5.468;2022-10-16T11:08:11;5.78;;;2.58;;
13461;SDS011;6803;45.264;5.468;2022-10-16T11:10:46;5.20;;;2.52;;
13461;SDS011;6803;45.264;5.468;2022-10-16T11:13:39;5.80;;;2.47;;
13461;SDS011;6803;45.264;5.468;2022-10-16T11:16:13;3.27;;;2.10;;
13461;SDS011;6803;45.264;5.468;2022-10-16T11:18:49;5.58;;;2.30;;
13461;SDS011;6803;45.264;5.468;2022-10-16T11:21:23;4.37;;;2.70;;
13461;SDS011;6803;45.264;5.468;2022-10-16T11:23:59;2.67;;;2.00;;
13461;SDS011;6803;45.264;5.468;2022-10-16T11:26:33;5.33;;;2.47;;
13461;SDS011;6803;45.264;5.468;2022-10-16T11:29:05;3.20;;;1.98;;
13461;SDS011;6803;45.264;5.468;2022-10-16T11:31:40;3.17;;;1.77;;
13461;SDS011;6803;45.264;5.468;2022-10-16T11:34:16;4.72;;;2.15;;
13461;SDS011;6803;45.264;5.468;2022-10-16T11:36:51;3.95;;;1.90;;
13461;SDS011;6803;45.264;5.468;2022-10-16T11:39:30;4.40;;;2.00;;
13461;SDS011;6803;45.264;5.468;2022-10-16T11:42:03;2.20;;;1.75;;
13461;SDS011;6803;45.264;5.468;2022-10-16T11:44:40;3.12;;;1.95;;
13461;SDS011;6803;45.264;5.468;2022-10-16T11:47:18;2.98;;;1.98;;
13461;SDS011;6803;45.264;5.468;2022-10-16T11:49:55;4.95;;;1.82;;
13461;SDS011;6803;45.264;5.468;2022-10-16T11:52:28;4.53;;;1.82;;
13461;SDS011;6803;45.264;5.468;2022-10-16T11:55:01;5.45;;;2.20;;
13461;SDS011;6803;45.264;5.468;2022-10-16T11:57:35;2.00;;;1.65;;
13461;SDS011;6803;45.264;5.468;2022-10-16T12:00:09;6.40;;;2.05;;
13461;SDS011;6803;45.264;5.468;2022-10-16T12:02:49;2.85;;;1.60;;
13461;SDS011;6803;45.264;5.468;2022-10-16T12:08:08;4.83;;;1.67;;
13461;SDS011;6803;45.264;5.468;2022-10-16T12:10:41;3.20;;;2.08;;
13461;SDS011;6803;45.264;5.468;2022-10-16T12:13:30;4.40;;;2.35;;
13461;SDS011;6803;45.264;5.468;2022-10-16T12:16:08;1.95;;;1.70;;
13461;SDS011;6803;45.264;5.468;2022-10-16T12:19:07;3.45;;;1.62;;
13461;SDS011;6803;45.264;5.468;2022-10-16T12:21:41;5.30;;;2.17;;
13461;SDS011;6803;45.264;5.468;2022-10-16T12:24:24;2.30;;;1.60;;
13461;SDS011;6803;45.264;5.468;2022-10-16T12:27:17;3.83;;;2.05;;
13461;SDS011;6803;45.264;5.468;2022-10-16T12:29:53;5.33;;;1.60;;
13461;SDS011;6803;45.264;5.468;2022-10-16T12:32:28;5.45;;;2.12;;
13461;SDS011;6803;45.264;5.468;2022-10-16T12:35:03;2.87;;;1.70;;
13461;SDS011;6803;45.264;5.468;2022-10-16T12:37:37;4.45;;;1.90;;
13461;SDS011;6803;45.264;5.468;2022-10-16T12:40:12;3.08;;;1.82;;
13461;SDS011;6803;45.264;5.468;2022-10-16T12:42:46;3.45;;;1.85;;
13461;SDS011;6803;45.264;5.468;2022-10-16T12:45:28;2.33;;;1.67;;
13461;SDS011;6803;45.264;5.468;2022-10-16T12:48:02;4.70;;;1.62;;
13461;SDS011;6803;45.264;5.468;2022-10-16T12:50:37;6.25;;;1.87;;
13461;SDS011;6803;45.264;5.468;2022-10-16T12:53:17;2.52;;;1.60;;
13461;SDS011;6803;45.264;5.468;2022-10-16T12:55:53;3.75;;;1.67;;
13461;SDS011;6803;45.264;5.468;2022-10-16T13:01:53;2.65;;;1.60;;
13461;SDS011;6803;45.264;5.468;2022-10-16T13:07:21;6.12;;;1.77;;
13461;SDS011;6803;45.264;5.468;2022-10-16T13:10:06;7.28;;;1.72;;
13461;SDS011;6803;45.264;5.468;2022-10-16T13:12:45;2.37;;;1.42;;
13461;SDS011;6803;45.264;5.468;2022-10-16T13:15:35;2.70;;;1.50;;
13461;SDS011;6803;45.264;5.468;2022-10-16T13:18:13;2.95;;;1.25;;
13461;SDS011;6803;45.264;5.468;2022-10-16T13:20:53;1.45;;;1.25;;
13461;SDS011;6803;45.264;5.468;2022-10-16T13:23:33;3.92;;;1.50;;
13461;SDS011;6803;45.264;5.468;2022-10-16T13:26:11;4.00;;;1.27;;
13461;SDS011;6803;45.264;5.468;2022-10-16T13:28:44;3.60;;;1.50;;
13461;SDS011;6803;45.264;5.468;2022-10-16T13:31:17;6.10;;;1.40;;
13461;SDS011;6803;45.264;5.468;2022-10-16T13:33:55;2.17;;;1.07;;
13461;SDS011;6803;45.264;5.468;2022-10-16T13:36:35;4.25;;;1.17;;
13461;SDS011;6803;45.264;5.468;2022-10-16T13:39:22;5.83;;;1.60;;
13461;SDS011;6803;45.264;5.468;2022-10-16T13:42:01;4.50;;;1.72;;
13461;SDS011;6803;45.264;5.468;2022-10-16T13:44:36;3.60;;;1.55;;
13461;SDS011;6803;45.264;5.468;2022-10-16T13:47:16;3.08;;;1.70;;
13461;SDS011;6803;45.264;5.468;2022-10-16T13:49:58;3.83;;;1.82;;
13461;SDS011;6803;45.264;5.468;2022-10-16T13:52:32;3.77;;;1.80;;
13461;SDS011;6803;45.264;5.468;2022-10-16T13:55:04;1.87;;;1.70;;
13461;SDS011;6803;45.264;5.468;2022-10-16T13:57:41;2.03;;;1.80;;
13461;SDS011;6803;45.264;5.468;2022-10-16T14:00:21;2.47;;;1.60;;
13461;SDS011;6803;45.264;5.468;2022-10-16T14:02:57;2.00;;;1.80;;
13461;SDS011;6803;45.264;5.468;2022-10-16T14:05:30;3.22;;;1.82;;
13461;SDS011;6803;45.264;5.468;2022-10-16T14:08:02;8.13;;;2.10;;
13461;SDS011;6803;45.264;5.468;2022-10-16T14:10:33;2.08;;;1.87;;
13461;SDS011;6803;45.264;5.468;2022-10-16T14:13:05;6.62;;;3.17;;
13461;SDS011;6803;45.264;5.468;2022-10-16T14:15:38;2.50;;;2.10;;
13461;SDS011;6803;45.264;5.468;2022-10-16T14:18:14;5.25;;;2.27;;
13461;SDS011;6803;45.264;5.468;2022-10-16T14:20:48;3.90;;;2.17;;
13461;SDS011;6803;45.264;5.468;2022-10-16T14:23:21;4.00;;;2.63;;
13461;SDS011;6803;45.264;5.468;2022-10-16T14:25:54;2.20;;;1.93;;
13461;SDS011;6803;45.264;5.468;2022-10-16T14:28:35;3.50;;;2.10;;
13461;SDS011;6803;45.264;5.468;2022-10-16T14:31:22;5.60;;;2.70;;
13461;SDS011;6803;45.264;5.468;2022-10-16T14:33:54;6.53;;;2.73;;
13461;SDS011;6803;45.264;5.468;2022-10-16T14:36:25;2.97;;;2.10;;
13461;SDS011;6803;45.264;5.468;2022-10-16T14:38:59;2.07;;;1.80;;
13461;SDS011;6803;45.264;5.468;2022-10-16T14:41:32;6.10;;;2.23;;
13461;SDS011;6803;45.264;5.468;2022-10-16T14:44:05;6.13;;;2.20;;
13461;SDS011;6803;45.264;5.468;2022-10-16T14:46:38;2.47;;;1.90;;
13461;SDS011;6803;45.264;5.468;2022-10-16T14:51:52;9.67;;;2.10;;
13461;SDS011;6803;45.264;5.468;2022-10-16T14:54:26;4.30;;;2.30;;
13461;SDS011;6803;45.264;5.468;2022-10-16T14:56:57;2.60;;;2.07;;
13461;SDS011;6803;45.264;5.468;2022-10-16T15:02:09;6.53;;;1.87;;
13461;SDS011;6803;45.264;5.468;2022-10-16T15:04:46;5.40;;;1.80;;
13461;SDS011;6803;45.264;5.468;2022-10-16T15:07:17;2.87;;;1.67;;
13461;SDS011;6803;45.264;5.468;2022-10-16T15:09:49;2.50;;;2.03;;
13461;SDS011;6803;45.264;5.468;2022-10-16T15:12:20;4.27;;;1.90;;
13461;SDS011;6803;45.264;5.468;2022-10-16T15:14:51;11.90;;;2.17;;
13461;SDS011;6803;45.264;5.468;2022-10-16T15:17:23;2.47;;;2.10;;
13461;SDS011;6803;45.264;5.468;2022-10-16T15:19:55;1.97;;;1.87;;
13461;SDS011;6803;45.264;5.468;2022-10-16T15:22:26;4.00;;;1.83;;
13461;SDS011;6803;45.264;5.468;2022-10-16T15:24:57;4.13;;;2.10;;
13461;SDS011;6803;45.264;5.468;2022-10-16T15:27:28;3.43;;;2.00;;
13461;SDS011;6803;45.264;5.468;2022-10-16T15:30:01;2.60;;;2.07;;
13461;SDS011;6803;45.264;5.468;2022-10-16T15:32:33;1.97;;;1.73;;
13461;SDS011;6803;45.264;5.468;2022-10-16T15:35:07;4.00;;;2.20;;
13461;SDS011;6803;45.264;5.468;2022-10-16T15:37:39;3.17;;;1.80;;
13461;SDS011;6803;45.264;5.468;2022-10-16T15:40:10;5.10;;;2.30;;
13461;SDS011;6803;45.264;5.468;2022-10-16T15:42:42;2.97;;;2.20;;
13461;SDS011;6803;45.264;5.468;2022-10-16T15:45:13;4.03;;;2.00;;
13461;SDS011;6803;45.264;5.468;2022-10-16T15:47:46;5.20;;;2.70;;
13461;SDS011;6803;45.264;5.468;2022-10-16T15:50:18;2.83;;;1.73;;
13461;SDS011;6803;45.264;5.468;2022-10-16T15:52:49;5.00;;;2.03;;
13461;SDS011;6803;45.264;5.468;2022-10-16T15:55:20;3.90;;;2.33;;
13461;SDS011;6803;45.264;5.468;2022-10-16T15:57:52;4.47;;;2.10;;